sensor_id;sensor_type;location;lat;lon;timestamp;pressure;altitude;pressure_sealevel;temperature;humidity
44988;BME280;35735;52.226;21.254;2024-01-30T00:03:23;102138.59;;;1.72;100.00
44988;BME280;35735;52.226;21.254;2024-01-30T00:08:23;102130.53;;;1.70;100.00
44988;BME280;35735;52.226;21.254;2024-01-30T00:13:24;102119.59;;;1.65;100.00
44988;BME280;35735;52.226;21.254;2024-01-30T00:18:24;102112.88;;;1.57;100.00
44988;BME280;35735;52.226;21.254;2024-01-30T00:23:25;102104.69;;;1.54;100.00
44988;BME280;35735;52.226;21.254;2024-01-30T00:28:25;102094.56;;;1.48;100.00
44988;BME280;35735;52.226;21.254;2024-01-30T00:33:26;102082.69;;;1.43;100.00
44988;BME280;35735;52.226;21.254;2024-01-30T00:38:27;102086.09;;;1.41;100.00
44988;BME280;35735;52.226;21.254;2024-01-30T00:43:28;102087.91;;;1.42;100.00
44988;BME280;35735;52.226;21.254;2024-01-30T00:48:28;102092.22;;;1.40;100.00
44988;BME280;35735;52.226;21.254;2024-01-30T00:53:29;102081.78;;;1.43;100.00
44988;BME280;35735;52.226;21.254;2024-01-30T00:58:29;102078.94;;;1.40;100.00
44988;BME280;35735;52.226;21.254;2024-01-30T01:03:30;102071.94;;;1.42;100.00
44988;BME280;35735;52.226;21.254;2024-01-30T01:08:30;102077.28;;;1.42;100.00
44988;BME280;35735;52.226;21.254;2024-01-30T01:13:31;102072.91;;;1.42;100.00
44988;BME280;35735;52.226;21.254;2024-01-30T01:18:31;102073.19;;;1.34;100.00
44988;BME280;35735;52.226;21.254;2024-01-30T01:23:32;102081.19;;;1.34;100.00
44988;BME280;35735;52.226;21.254;2024-01-30T01:28:33;102072.50;;;1.36;100.00
44988;BME280;35735;52.226;21.254;2024-01-30T01:33:33;102064.50;;;1.36;100.00
44988;BME280;35735;52.226;21.254;2024-01-30T01:38:34;102073.41;;;1.37;100.00
44988;BME280;35735;52.226;21.254;2024-01-30T01:43:34;102065.22;;;1.34;100.00
44988;BME280;35735;52.226;21.254;2024-01-30T01:48:36;102060.00;;;1.35;100.00
44988;BME280;35735;52.226;21.254;2024-01-30T01:53:36;102074.66;;;1.28;100.00
44988;BME280;35735;52.226;21.254;2024-01-30T01:58:37;102067.31;;;1.24;100.00
44988;BME280;35735;52.226;21.254;2024-01-30T02:03:38;102066.09;;;1.19;100.00
44988;BME280;35735;52.226;21.254;2024-01-30T02:08:39;102061.59;;;1.18;100.00
44988;BME280;35735;52.226;21.254;2024-01-30T02:13:41;102058.56;;;1.12;100.00
44988;BME280;35735;52.226;21.254;2024-01-30T02:18:41;102053.63;;;1.05;100.00
44988;BME280;35735;52.226;21.254;2024-01-30T02:23:43;102055.50;;;1.06;100.00
44988;BME280;35735;52.226;21.254;2024-01-30T02:28:44;102035.53;;;1.13;100.00
44988;BME280;35735;52.226;21.254;2024-01-30T02:33:45;102048.19;;;1.17;100.00
44988;BME280;35735;52.226;21.254;2024-01-30T02:38:45;102049.84;;;1.15;100.00
44988;BME280;35735;52.226;21.254;2024-01-30T02:43:46;102048.72;;;1.11;100.00
44988;BME280;35735;52.226;21.254;2024-01-30T02:48:46;102040.03;;;1.00;100.00
44988;BME280;35735;52.226;21.254;2024-01-30T02:53:47;102044.88;;;0.92;100.00
44988;BME280;35735;52.226;21.254;2024-01-30T02:58:47;102049.56;;;0.97;100.00
44988;BME280;35735;52.226;21.254;2024-01-30T03:03:48;102044.13;;;0.95;100.00
44988;BME280;35735;52.226;21.254;2024-01-30T03:08:48;102033.13;;;0.89;100.00
44988;BME280;35735;52.226;21.254;2024-01-30T03:13:49;102043.03;;;0.91;100.00
44988;BME280;35735;52.226;21.254;2024-01-30T03:18:49;102040.37;;;0.91;100.00
44988;BME280;35735;52.226;21.254;2024-01-30T03:23:50;102044.97;;;0.94;100.00
44988;BME280;35735;52.226;21.254;2024-01-30T03:28:51;102040.37;;;0.91;100.00
44988;BME280;35735;52.226;21.254;2024-01-30T03:33:51;102029.53;;;0.88;100.00
44988;BME280;35735;52.226;21.254;2024-01-30T03:38:52;102027.81;;;0.89;100.00
44988;BME280;35735;52.226;21.254;2024-01-30T03:43:52;102035.28;;;0.81;100.00
44988;BME280;35735;52.226;21.254;2024-01-30T03:48:53;102016.09;;;0.72;100.00
44988;BME280;35735;52.226;21.254;2024-01-30T03:53:54;102025.88;;;0.73;100.00
44988;BME280;35735;52.226;21.254;2024-01-30T03:58:54;102033.16;;;0.76;100.00
44988;BME280;35735;52.226;21.254;2024-01-30T04:03:55;102029.87;;;0.66;100.00
44988;BME280;35735;52.226;21.254;2024-01-30T04:08:55;102026.91;;;0.62;100.00
44988;BME280;35735;52.226;21.254;2024-01-30T04:13:56;102024.66;;;0.68;100.00
44988;BME280;35735;52.226;21.254;2024-01-30T04:18:57;102023.97;;;0.70;100.00
44988;BME280;35735;52.226;21.254;2024-01-30T04:23:58;102027.00;;;0.63;100.00
44988;BME280;35735;52.226;21.254;2024-01-30T04:28:58;102033.44;;;0.67;100.00
44988;BME280;35735;52.226;21.254;2024-01-30T04:33:59;102035.28;;;0.68;100.00
44988;BME280;35735;52.226;21.254;2024-01-30T04:38:59;102033.66;;;0.70;100.00
44988;BME280;35735;52.226;21.254;2024-01-30T04:44:00;102027.63;;;0.72;100.00
44988;BME280;35735;52.226;21.254;2024-01-30T04:49:00;102026.87;;;0.75;100.00
44988;BME280;35735;52.226;21.254;2024-01-30T04:54:01;102021.78;;;0.65;100.00
44988;BME280;35735;52.226;21.254;2024-01-30T04:59:02;102028.97;;;0.52;100.00
44988;BME280;35735;52.226;21.254;2024-01-30T05:04:03;102026.31;;;0.52;100.00
44988;BME280;35735;52.226;21.254;2024-01-30T05:09:04;102023.44;;;0.49;100.00
44988;BME280;35735;52.226;21.254;2024-01-30T05:14:05;102025.31;;;0.50;100.00
44988;BME280;35735;52.226;21.254;2024-01-30T05:19:06;102027.31;;;0.54;100.00
44988;BME280;35735;52.226;21.254;2024-01-30T05:24:07;102024.47;;;0.51;100.00
44988;BME280;35735;52.226;21.254;2024-01-30T05:29:07;102021.09;;;0.54;100.00
44988;BME280;35735;52.226;21.254;2024-01-30T05:34:08;102017.00;;;0.46;100.00
44988;BME280;35735;52.226;21.254;2024-01-30T05:39:08;102007.09;;;0.43;100.00
44988;BME280;35735;52.226;21.254;2024-01-30T05:44:09;102016.50;;;0.38;100.00
44988;BME280;35735;52.226;21.254;2024-01-30T05:49:09;102011.19;;;0.38;100.00
44988;BME280;35735;52.226;21.254;2024-01-30T05:54:10;102022.66;;;0.37;100.00
44988;BME280;35735;52.226;21.254;2024-01-30T05:59:10;102020.16;;;0.27;100.00
44988;BME280;35735;52.226;21.254;2024-01-30T06:04:11;102023.66;;;0.26;100.00
44988;BME280;35735;52.226;21.254;2024-01-30T06:09:11;102031.00;;;0.30;100.00
44988;BME280;35735;52.226;21.254;2024-01-30T06:14:12;102021.50;;;0.33;100.00
44988;BME280;35735;52.226;21.254;2024-01-30T06:19:13;102022.22;;;0.31;100.00
44988;BME280;35735;52.226;21.254;2024-01-30T06:24:13;102018.94;;;0.35;100.00
44988;BME280;35735;52.226;21.254;2024-01-30T06:29:14;102013.63;;;0.35;100.00
44988;BME280;35735;52.226;21.254;2024-01-30T06:34:14;102017.81;;;0.31;100.00
44988;BME280;35735;52.226;21.254;2024-01-30T06:39:15;102017.81;;;0.31;100.00
44988;BME280;35735;52.226;21.254;2024-01-30T06:44:15;102011.38;;;0.28;100.00
44988;BME280;35735;52.226;21.254;2024-01-30T06:49:16;102015.06;;;0.30;100.00
44988;BME280;35735;52.226;21.254;2024-01-30T06:54:16;102020.59;;;0.33;100.00
44988;BME280;35735;52.226;21.254;2024-01-30T06:59:17;102029.78;;;0.38;100.00
44988;BME280;35735;52.226;21.254;2024-01-30T07:04:18;102031.31;;;0.48;100.00
44988;BME280;35735;52.226;21.254;2024-01-30T07:09:18;102032.63;;;0.54;100.00
44988;BME280;35735;52.226;21.254;2024-01-30T07:14:19;102028.56;;;0.60;100.00
44988;BME280;35735;52.226;21.254;2024-01-30T07:19:19;102031.72;;;0.67;100.00
44988;BME280;35735;52.226;21.254;2024-01-30T07:24:20;102033.84;;;0.73;100.00
44988;BME280;35735;52.226;21.254;2024-01-30T07:29:20;102037.72;;;0.78;100.00
44988;BME280;35735;52.226;21.254;2024-01-30T07:34:21;102030.97;;;0.83;100.00
44988;BME280;35735;52.226;21.254;2024-01-30T07:39:22;102024.41;;;0.91;100.00
44988;BME280;35735;52.226;21.254;2024-01-30T07:44:22;102036.87;;;1.06;100.00
44988;BME280;35735;52.226;21.254;2024-01-30T07:49:23;102032.12;;;1.15;100.00
44988;BME280;35735;52.226;21.254;2024-01-30T07:54:23;102031.91;;;1.25;100.00
44988;BME280;35735;52.226;21.254;2024-01-30T07:59:24;102022.03;;;1.38;100.00
44988;BME280;35735;52.226;21.254;2024-01-30T08:04:24;102019.50;;;1.54;100.00
44988;BME280;35735;52.226;21.254;2024-01-30T08:09:25;102021.91;;;1.64;100.00
44988;BME280;35735;52.226;21.254;2024-01-30T08:14:25;102013.66;;;1.75;100.00
44988;BME280;35735;52.226;21.254;2024-01-30T08:19:26;102010.94;;;1.88;100.00
44988;BME280;35735;52.226;21.254;2024-01-30T08:24:26;102017.34;;;2.07;100.00
44988;BME280;35735;52.226;21.254;2024-01-30T08:29:27;102010.94;;;2.18;100.00
44988;BME280;35735;52.226;21.254;2024-01-30T08:34:27;102006.13;;;2.27;100.00
44988;BME280;35735;52.226;21.254;2024-01-30T08:39:28;102012.19;;;2.39;100.00
44988;BME280;35735;52.226;21.254;2024-01-30T08:44:29;102013.75;;;2.51;100.00
44988;BME280;35735;52.226;21.254;2024-01-30T08:49:29;102008.12;;;2.61;100.00
44988;BME280;35735;52.226;21.254;2024-01-30T08:54:30;102006.63;;;2.66;100.00
44988;BME280;35735;52.226;21.254;2024-01-30T08:59:30;102001.66;;;2.72;100.00
44988;BME280;35735;52.226;21.254;2024-01-30T09:04:31;102011.34;;;2.87;100.00
44988;BME280;35735;52.226;21.254;2024-01-30T09:09:31;102008.72;;;3.03;100.00
44988;BME280;35735;52.226;21.254;2024-01-30T09:14:32;102002.22;;;3.14;100.00
44988;BME280;35735;52.226;21.254;2024-01-30T09:19:32;102004.75;;;3.28;100.00
44988;BME280;35735;52.226;21.254;2024-01-30T09:24:37;101998.38;;;3.42;100.00
44988;BME280;35735;52.226;21.254;2024-01-30T09:29:38;101999.72;;;3.67;100.00
44988;BME280;35735;52.226;21.254;2024-01-30T09:34:38;101993.66;;;3.87;100.00
44988;BME280;35735;52.226;21.254;2024-01-30T09:39:39;101990.38;;;4.10;100.00
44988;BME280;35735;52.226;21.254;2024-01-30T09:44:43;101988.41;;;4.23;100.00
44988;BME280;35735;52.226;21.254;2024-01-30T09:49:44;101991.25;;;4.44;100.00
44988;BME280;35735;52.226;21.254;2024-01-30T09:54:45;101981.22;;;4.58;100.00
44988;BME280;35735;52.226;21.254;2024-01-30T09:59:45;101979.44;;;4.77;100.00
44988;BME280;35735;52.226;21.254;2024-01-30T10:04:50;101968.00;;;4.99;100.00
44988;BME280;35735;52.226;21.254;2024-01-30T10:09:52;101955.72;;;5.22;100.00
44988;BME280;35735;52.226;21.254;2024-01-30T10:14:56;101954.69;;;5.39;100.00
44988;BME280;35735;52.226;21.254;2024-01-30T10:19:56;101957.81;;;5.49;100.00
44988;BME280;35735;52.226;21.254;2024-01-30T10:24:57;101952.00;;;5.59;100.00
44988;BME280;35735;52.226;21.254;2024-01-30T10:29:58;101951.66;;;5.71;100.00
44988;BME280;35735;52.226;21.254;2024-01-30T10:34:58;101940.41;;;5.80;100.00
44988;BME280;35735;52.226;21.254;2024-01-30T10:40:02;101939.25;;;5.94;100.00
44988;BME280;35735;52.226;21.254;2024-01-30T10:45:08;101931.06;;;6.10;100.00
44988;BME280;35735;52.226;21.254;2024-01-30T10:50:10;101931.31;;;6.17;100.00
44988;BME280;35735;52.226;21.254;2024-01-30T10:55:11;101927.25;;;6.26;100.00
44988;BME280;35735;52.226;21.254;2024-01-30T11:00:13;101923.31;;;6.39;100.00
44988;BME280;35735;52.226;21.254;2024-01-30T11:05:14;101912.84;;;6.45;100.00
44988;BME280;35735;52.226;21.254;2024-01-30T11:10:25;101911.37;;;6.54;100.00
44988;BME280;35735;52.226;21.254;2024-01-30T11:15:25;101901.75;;;6.59;100.00
44988;BME280;35735;52.226;21.254;2024-01-30T11:20:27;101891.19;;;6.63;100.00
44988;BME280;35735;52.226;21.254;2024-01-30T11:25:31;101892.44;;;6.73;100.00
44988;BME280;35735;52.226;21.254;2024-01-30T11:30:32;101891.91;;;6.82;100.00
44988;BME280;35735;52.226;21.254;2024-01-30T11:35:36;101880.50;;;6.87;100.00
44988;BME280;35735;52.226;21.254;2024-01-30T11:40:39;101879.03;;;6.96;99.68
44988;BME280;35735;52.226;21.254;2024-01-30T11:45:39;101876.53;;;7.00;99.28
44988;BME280;35735;52.226;21.254;2024-01-30T11:50:40;101872.28;;;7.07;98.81
44988;BME280;35735;52.226;21.254;2024-01-30T11:55:40;101864.63;;;7.18;98.80
44988;BME280;35735;52.226;21.254;2024-01-30T12:00:41;101862.22;;;7.26;98.16
44988;BME280;35735;52.226;21.254;2024-01-30T12:05:42;101863.31;;;7.31;97.55
44988;BME280;35735;52.226;21.254;2024-01-30T12:10:42;101855.25;;;7.31;97.25
44988;BME280;35735;52.226;21.254;2024-01-30T12:15:43;101855.53;;;7.38;96.81
44988;BME280;35735;52.226;21.254;2024-01-30T12:20:43;101848.38;;;7.39;96.73
44988;BME280;35735;52.226;21.254;2024-01-30T12:25:44;101848.50;;;7.42;96.32
44988;BME280;35735;52.226;21.254;2024-01-30T12:30:45;101851.28;;;7.45;96.05
44988;BME280;35735;52.226;21.254;2024-01-30T12:35:46;101844.09;;;7.44;96.00
44988;BME280;35735;52.226;21.254;2024-01-30T12:40:47;101839.78;;;7.49;95.41
44988;BME280;35735;52.226;21.254;2024-01-30T12:45:48;101844.13;;;7.46;95.29
44988;BME280;35735;52.226;21.254;2024-01-30T12:50:48;101835.12;;;7.44;95.09
44988;BME280;35735;52.226;21.254;2024-01-30T12:55:49;101840.25;;;7.37;95.09
44988;BME280;35735;52.226;21.254;2024-01-30T13:00:49;101831.31;;;7.37;94.94
44988;BME280;35735;52.226;21.254;2024-01-30T13:05:50;101828.56;;;7.35;94.60
44988;BME280;35735;52.226;21.254;2024-01-30T13:10:50;101818.50;;;7.30;94.41
44988;BME280;35735;52.226;21.254;2024-01-30T13:15:51;101815.56;;;7.22;94.43
44988;BME280;35735;52.226;21.254;2024-01-30T13:20:52;101818.12;;;7.19;94.24
44988;BME280;35735;52.226;21.254;2024-01-30T13:25:52;101825.16;;;7.15;94.21
44988;BME280;35735;52.226;21.254;2024-01-30T13:30:53;101826.00;;;7.14;94.29
44988;BME280;35735;52.226;21.254;2024-01-30T13:35:53;101821.34;;;7.09;94.22
44988;BME280;35735;52.226;21.254;2024-01-30T13:40:54;101823.84;;;7.04;94.28
44988;BME280;35735;52.226;21.254;2024-01-30T13:45:55;101822.00;;;7.03;94.37
44988;BME280;35735;52.226;21.254;2024-01-30T13:50:55;101817.44;;;7.00;94.30
44988;BME280;35735;52.226;21.254;2024-01-30T13:55:56;101815.91;;;7.07;94.33
44988;BME280;35735;52.226;21.254;2024-01-30T14:00:57;101815.03;;;7.08;94.03
44988;BME280;35735;52.226;21.254;2024-01-30T14:05:57;101817.66;;;7.07;93.86
44988;BME280;35735;52.226;21.254;2024-01-30T14:10:58;101813.09;;;7.04;93.92
44988;BME280;35735;52.226;21.254;2024-01-30T14:15:59;101806.87;;;7.05;93.79
44988;BME280;35735;52.226;21.254;2024-01-30T14:20:59;101800.38;;;6.98;93.74
44988;BME280;35735;52.226;21.254;2024-01-30T14:26:00;101804.59;;;6.92;93.62
44988;BME280;35735;52.226;21.254;2024-01-30T14:31:00;101801.69;;;6.85;93.81
44988;BME280;35735;52.226;21.254;2024-01-30T14:36:01;101798.12;;;6.86;93.87
44988;BME280;35735;52.226;21.254;2024-01-30T14:41:01;101798.12;;;6.86;93.98
44988;BME280;35735;52.226;21.254;2024-01-30T14:46:03;101793.47;;;6.81;93.79
44988;BME280;35735;52.226;21.254;2024-01-30T14:51:03;101794.16;;;6.75;93.97
44988;BME280;35735;52.226;21.254;2024-01-30T14:56:04;101793.78;;;6.66;93.94
44988;BME280;35735;52.226;21.254;2024-01-30T15:01:06;101790.09;;;6.62;94.13
44988;BME280;35735;52.226;21.254;2024-01-30T15:06:08;101779.22;;;6.59;94.22
44988;BME280;35735;52.226;21.254;2024-01-30T15:11:08;101780.44;;;6.43;94.07
44988;BME280;35735;52.226;21.254;2024-01-30T15:16:09;101778.22;;;6.33;94.26
44988;BME280;35735;52.226;21.254;2024-01-30T15:21:10;101784.88;;;6.20;94.46
44988;BME280;35735;52.226;21.254;2024-01-30T15:26:11;101785.38;;;6.10;94.64
44988;BME280;35735;52.226;21.254;2024-01-30T15:31:11;101784.03;;;5.99;94.87
44988;BME280;35735;52.226;21.254;2024-01-30T15:36:12;101789.03;;;5.91;95.10
44988;BME280;35735;52.226;21.254;2024-01-30T15:41:12;101781.97;;;5.93;95.28
44988;BME280;35735;52.226;21.254;2024-01-30T15:46:13;101775.34;;;5.83;95.32
44988;BME280;35735;52.226;21.254;2024-01-30T15:51:14;101780.31;;;5.74;95.42
44988;BME280;35735;52.226;21.254;2024-01-30T15:56:14;101772.19;;;5.72;95.82
44988;BME280;35735;52.226;21.254;2024-01-30T16:01:15;101775.75;;;5.71;95.87
44988;BME280;35735;52.226;21.254;2024-01-30T16:06:16;101777.69;;;5.75;95.93
44988;BME280;35735;52.226;21.254;2024-01-30T16:11:17;101772.34;;;5.75;96.07
44988;BME280;35735;52.226;21.254;2024-01-30T16:16:18;101775.84;;;5.74;96.08
44988;BME280;35735;52.226;21.254;2024-01-30T16:21:18;101766.56;;;5.66;95.90
44988;BME280;35735;52.226;21.254;2024-01-30T16:26:19;101772.53;;;5.59;96.12
44988;BME280;35735;52.226;21.254;2024-01-30T16:31:20;101757.56;;;5.64;96.33
44988;BME280;35735;52.226;21.254;2024-01-30T16:36:20;101755.37;;;5.54;95.97
44988;BME280;35735;52.226;21.254;2024-01-30T16:41:21;101760.72;;;5.33;96.03
44988;BME280;35735;52.226;21.254;2024-01-30T16:46:22;101764.94;;;5.26;96.31
44988;BME280;35735;52.226;21.254;2024-01-30T16:51:22;101765.84;;;5.27;96.68
44988;BME280;35735;52.226;21.254;2024-01-30T16:56:23;101758.84;;;5.30;96.82
44988;BME280;35735;52.226;21.254;2024-01-30T17:01:24;101765.91;;;5.28;96.92
44988;BME280;35735;52.226;21.254;2024-01-30T17:06:24;101756.13;;;5.09;96.90
44988;BME280;35735;52.226;21.254;2024-01-30T17:11:25;101750.41;;;5.00;97.15
44988;BME280;35735;52.226;21.254;2024-01-30T17:16:25;101751.59;;;4.87;97.12
44988;BME280;35735;52.226;21.254;2024-01-30T17:21:26;101753.47;;;4.69;97.17
44988;BME280;35735;52.226;21.254;2024-01-30T17:26:26;101741.09;;;4.51;97.41
44988;BME280;35735;52.226;21.254;2024-01-30T17:31:27;101746.56;;;4.35;97.81
44988;BME280;35735;52.226;21.254;2024-01-30T17:36:27;101743.53;;;4.27;98.21
44988;BME280;35735;52.226;21.254;2024-01-30T17:41:28;101732.34;;;4.16;98.23
44988;BME280;35735;52.226;21.254;2024-01-30T17:46:28;101736.13;;;4.02;98.28
44988;BME280;35735;52.226;21.254;2024-01-30T17:51:29;101735.00;;;3.97;98.76
44988;BME280;35735;52.226;21.254;2024-01-30T17:56:29;101731.34;;;3.95;98.89
44988;BME280;35735;52.226;21.254;2024-01-30T18:01:30;101730.47;;;3.96;99.11
44988;BME280;35735;52.226;21.254;2024-01-30T18:06:31;101732.00;;;3.90;99.19
44988;BME280;35735;52.226;21.254;2024-01-30T18:11:31;101730.81;;;3.84;99.21
44988;BME280;35735;52.226;21.254;2024-01-30T18:16:32;101731.66;;;3.83;99.35
44988;BME280;35735;52.226;21.254;2024-01-30T18:21:32;101729.31;;;3.71;99.22
44988;BME280;35735;52.226;21.254;2024-01-30T18:26:35;101727.88;;;3.60;99.55
44988;BME280;35735;52.226;21.254;2024-01-30T18:31:36;101721.37;;;3.55;99.85
44988;BME280;35735;52.226;21.254;2024-01-30T18:36:36;101726.19;;;3.62;100.00
44988;BME280;35735;52.226;21.254;2024-01-30T18:41:37;101725.50;;;3.66;100.00
44988;BME280;35735;52.226;21.254;2024-01-30T18:46:38;101725.50;;;3.66;100.00
44988;BME280;35735;52.226;21.254;2024-01-30T18:51:38;101729.00;;;3.65;100.00
44988;BME280;35735;52.226;21.254;2024-01-30T18:56:39;101734.59;;;3.51;100.00
44988;BME280;35735;52.226;21.254;2024-01-30T19:01:39;101734.87;;;3.40;100.00
44988;BME280;35735;52.226;21.254;2024-01-30T19:06:40;101735.47;;;3.34;100.00
44988;BME280;35735;52.226;21.254;2024-01-30T19:11:40;101731.28;;;3.21;100.00
44988;BME280;35735;52.226;21.254;2024-01-30T19:16:41;101732.34;;;3.07;100.00
44988;BME280;35735;52.226;21.254;2024-01-30T19:21:41;101727.44;;;2.98;100.00
44988;BME280;35735;52.226;21.254;2024-01-30T19:26:42;101715.37;;;2.88;100.00
44988;BME280;35735;52.226;21.254;2024-01-30T19:31:43;101714.47;;;2.88;100.00
44988;BME280;35735;52.226;21.254;2024-01-30T19:36:43;101712.47;;;2.84;100.00
44988;BME280;35735;52.226;21.254;2024-01-30T19:41:44;101713.97;;;2.78;100.00
44988;BME280;35735;52.226;21.254;2024-01-30T19:46:44;101718.31;;;2.76;100.00
44988;BME280;35735;52.226;21.254;2024-01-30T19:51:45;101707.50;;;2.73;100.00
44988;BME280;35735;52.226;21.254;2024-01-30T19:56:45;101704.81;;;2.73;100.00
44988;BME280;35735;52.226;21.254;2024-01-30T20:01:46;101704.66;;;2.70;100.00
44988;BME280;35735;52.226;21.254;2024-01-30T20:06:46;101696.38;;;2.64;100.00
44988;BME280;35735;52.226;21.254;2024-01-30T20:11:47;101696.03;;;2.58;100.00
44988;BME280;35735;52.226;21.254;2024-01-30T20:16:48;101690.38;;;2.52;100.00
44988;BME280;35735;52.226;21.254;2024-01-30T20:21:48;101690.87;;;2.45;100.00
44988;BME280;35735;52.226;21.254;2024-01-30T20:26:49;101695.06;;;2.39;100.00
44988;BME280;35735;52.226;21.254;2024-01-30T20:31:49;101692.22;;;2.36;100.00
44988;BME280;35735;52.226;21.254;2024-01-30T20:36:50;101695.13;;;2.41;100.00
44988;BME280;35735;52.226;21.254;2024-01-30T20:41:50;101685.03;;;2.35;100.00
44988;BME280;35735;52.226;21.254;2024-01-30T20:46:51;101682.38;;;2.35;100.00
44988;BME280;35735;52.226;21.254;2024-01-30T20:51:51;101689.31;;;2.32;100.00
44988;BME280;35735;52.226;21.254;2024-01-30T20:56:52;101681.91;;;2.26;100.00
44988;BME280;35735;52.226;21.254;2024-01-30T21:01:53;101671.50;;;2.14;100.00
44988;BME280;35735;52.226;21.254;2024-01-30T21:06:53;101667.78;;;2.11;100.00
44988;BME280;35735;52.226;21.254;2024-01-30T21:11:55;101670.53;;;2.12;100.00
44988;BME280;35735;52.226;21.254;2024-01-30T21:16:55;101670.44;;;2.11;100.00
44988;BME280;35735;52.226;21.254;2024-01-30T21:21:56;101671.44;;;2.13;100.00
44988;BME280;35735;52.226;21.254;2024-01-30T21:26:56;101663.19;;;2.08;100.00
44988;BME280;35735;52.226;21.254;2024-01-30T21:31:57;101664.41;;;2.15;100.00
44988;BME280;35735;52.226;21.254;2024-01-30T21:36:57;101662.09;;;2.21;100.00
44988;BME280;35735;52.226;21.254;2024-01-30T21:41:58;101655.91;;;2.22;100.00
44988;BME280;35735;52.226;21.254;2024-01-30T21:46:59;101659.69;;;2.26;100.00
44988;BME280;35735;52.226;21.254;2024-01-30T21:51:59;101664.75;;;2.21;100.00
44988;BME280;35735;52.226;21.254;2024-01-30T21:57:00;101671.41;;;2.29;100.00
44988;BME280;35735;52.226;21.254;2024-01-30T22:02:01;101667.25;;;2.34;100.00
44988;BME280;35735;52.226;21.254;2024-01-30T22:07:01;101661.75;;;2.31;100.00
44988;BME280;35735;52.226;21.254;2024-01-30T22:12:02;101670.00;;;2.36;100.00
44988;BME280;35735;52.226;21.254;2024-01-30T22:17:03;101675.50;;;2.39;100.00
44988;BME280;35735;52.226;21.254;2024-01-30T22:22:03;101676.75;;;2.46;100.00
44988;BME280;35735;52.226;21.254;2024-01-30T22:27:04;101672.47;;;2.49;100.00
44988;BME280;35735;52.226;21.254;2024-01-30T22:32:05;101671.88;;;2.55;100.00
44988;BME280;35735;52.226;21.254;2024-01-30T22:37:05;101668.06;;;2.50;100.00
44988;BME280;35735;52.226;21.254;2024-01-30T22:42:06;101667.72;;;2.44;100.00
44988;BME280;35735;52.226;21.254;2024-01-30T22:47:07;101666.81;;;2.43;100.00
44988;BME280;35735;52.226;21.254;2024-01-30T22:52:07;101656.31;;;2.46;100.00
44988;BME280;35735;52.226;21.254;2024-01-30T22:57:08;101661.81;;;2.49;100.00
44988;BME280;35735;52.226;21.254;2024-01-30T23:02:08;101659.00;;;2.46;100.00
44988;BME280;35735;52.226;21.254;2024-01-30T23:07:09;101648.06;;;2.41;100.00
44988;BME280;35735;52.226;21.254;2024-01-30T23:12:10;101641.41;;;2.50;100.00
44988;BME280;35735;52.226;21.254;2024-01-30T23:17:11;101648.78;;;2.55;100.00
44988;BME280;35735;52.226;21.254;2024-01-30T23:22:11;101631.22;;;2.59;100.00
44988;BME280;35735;52.226;21.254;2024-01-30T23:27:12;101634.03;;;2.62;100.00
44988;BME280;35735;52.226;21.254;2024-01-30T23:32:12;101632.50;;;2.67;100.00
44988;BME280;35735;52.226;21.254;2024-01-30T23:37:13;101637.00;;;2.68;100.00
44988;BME280;35735;52.226;21.254;2024-01-30T23:42:13;101628.34;;;2.72;100.00
44988;BME280;35735;52.226;21.254;2024-01-30T23:47:14;101629.03;;;2.68;100.00
44988;BME280;35735;52.226;21.254;2024-01-30T23:52:15;101622.00;;;2.52;100.00
44988;BME280;35735;52.226;21.254;2024-01-30T23:57:15;101624.16;;;2.43;100.00
